Time;durP1;ratioP1;P1;durP2;ratioP2;P2;SDS_P1;SDS_P2;PMS_P1;PMS_P2;Temp;Humidity;BMP_temperature;BMP_pressure;BME280_temperature;BME280_humidity;BME280_pressure;Samples;Min_cycle;Max_cycle;Signal;HPM_P1;HPM_P2
2020/12/22 00:02:01;;;;;;;17.40;12.00;;;;;;;2.21;100.00;97538.81;4976199;28;20259;-86
2020/12/22 00:04:28;;;;;;;16.83;12.27;;;;;;;2.23;100.00;97541.34;4975715;28;20244;-87
2020/12/22 00:06:57;;;;;;;15.40;11.80;;;;;;;2.28;100.00;97539.38;4976057;28;20201;-88
2020/12/22 00:09:24;;;;;;;16.83;12.33;;;;;;;2.26;100.00;97542.03;4975773;28;20204;-88
2020/12/22 00:11:51;;;;;;;16.27;10.67;;;;;;;2.18;100.00;97544.16;4975742;28;20208;-88
2020/12/22 00:14:19;;;;;;;18.70;11.53;;;;;;;2.00;100.00;97537.28;4975823;28;20208;-87
2020/12/22 00:16:46;;;;;;;15.77;11.40;;;;;;;2.06;100.00;97542.19;4975374;28;20283;-87
2020/12/22 00:19:13;;;;;;;14.20;10.10;;;;;;;2.25;100.00;97535.19;4975242;28;20209;-88
2020/12/22 00:21:40;;;;;;;13.83;10.00;;;;;;;2.23;100.00;97538.75;4975656;28;20201;-87
2020/12/22 00:24:07;;;;;;;13.93;10.17;;;;;;;2.24;100.00;97543.03;4975821;28;20204;-87
2020/12/22 00:26:34;;;;;;;17.23;10.60;;;;;;;2.20;100.00;97544.09;4975547;28;20209;-86
2020/12/22 00:29:00;;;;;;;14.67;10.70;;;;;;;2.42;100.00;97541.28;4974621;28;20197;-86
2020/12/22 00:31:28;;;;;;;14.43;10.13;;;;;;;2.33;100.00;97547.78;4975610;28;20269;-86
2020/12/22 00:33:55;;;;;;;16.90;10.43;;;;;;;2.27;100.00;97540.28;4975914;28;20201;-88
2020/12/22 00:36:22;;;;;;;18.97;12.03;;;;;;;2.08;100.00;97541.19;4975688;28;20201;-86
2020/12/22 00:38:49;;;;;;;16.80;11.73;;;;;;;2.05;100.00;97537.91;4975596;28;20200;-86
2020/12/22 00:41:16;;;;;;;16.30;10.07;;;;;;;2.04;100.00;97538.81;4975318;28;20264;-87
2020/12/22 00:43:43;;;;;;;16.70;11.23;;;;;;;2.04;100.00;97551.78;4975640;28;20223;-87
2020/12/22 00:46:14;;;;;;;15.53;10.03;;;;;;;2.01;100.00;97547.59;4975629;28;20632;-88
2020/12/22 00:48:45;;;;;;;17.13;10.20;;;;;;;2.13;100.00;97544.41;4975175;28;20185;-87
2020/12/22 00:51:13;;;;;;;13.67;10.63;;;;;;;2.17;100.00;97545.09;4974984;28;20216;-86
2020/12/22 00:53:41;;;;;;;14.90;10.17;;;;;;;2.24;100.00;97550.81;4974841;28;20708;-87
2020/12/22 00:56:12;;;;;;;15.90;10.97;;;;;;;2.25;100.00;97549.88;4975268;28;20220;-86
2020/12/22 00:58:39;;;;;;;15.83;11.23;;;;;;;2.30;100.00;97538.38;4974931;28;20189;-87
2020/12/22 01:01:06;;;;;;;13.60;9.97;;;;;;;2.16;100.00;97546.00;4974714;28;20319;-86
2020/12/22 01:03:33;;;;;;;15.13;10.77;;;;;;;2.27;100.00;97545.47;4974317;28;20201;-87
2020/12/22 01:06:01;;;;;;;12.77;11.03;;;;;;;2.10;100.00;97547.13;4975031;28;20205;-88
2020/12/22 01:08:28;;;;;;;15.70;10.70;;;;;;;2.02;100.00;97543.25;4974759;28;20200;-87
2020/12/22 01:10:55;;;;;;;13.30;9.87;;;;;;;2.09;100.00;97537.69;4974516;28;20197;-86
2020/12/22 01:13:22;;;;;;;13.87;10.00;;;;;;;2.00;100.00;97537.28;4974506;28;20219;-87
2020/12/22 01:15:49;;;;;;;15.17;11.13;;;;;;;2.13;100.00;97535.78;4974891;28;20224;-87
2020/12/22 01:18:16;;;;;;;19.00;12.20;;;;;;;2.19;100.00;97529.47;4974406;28;20292;-86
2020/12/22 01:20:42;;;;;;;16.90;11.83;;;;;;;2.08;100.00;97530.84;4974707;28;20345;-86
2020/12/22 01:23:10;;;;;;;13.47;9.87;;;;;;;2.19;100.00;97532.06;4974882;28;20563;-86
2020/12/22 01:25:37;;;;;;;13.50;9.60;;;;;;;2.19;100.00;97529.47;4974741;28;20227;-87
2020/12/22 01:28:04;;;;;;;12.87;10.13;;;;;;;2.20;100.00;97536.31;4974657;28;20205;-86
2020/12/22 01:30:30;;;;;;;11.43;9.00;;;;;;;2.23;100.00;97537.00;4974177;28;20239;-86
2020/12/22 01:32:57;;;;;;;14.20;10.57;;;;;;;2.32;100.00;97530.50;4974116;28;20236;-86
2020/12/22 01:35:24;;;;;;;15.33;8.77;;;;;;;2.36;100.00;97524.28;4974301;28;20213;-86
2020/12/22 01:37:51;;;;;;;12.67;9.10;;;;;;;2.46;100.00;97532.41;4974217;28;20732;-87
2020/12/22 01:40:19;;;;;;;10.20;8.40;;;;;;;2.35;100.00;97527.75;4974450;28;20316;-87
2020/12/22 01:42:46;;;;;;;11.07;8.60;;;;;;;2.44;100.00;97529.91;4974110;28;20205;-87
2020/12/22 01:45:13;;;;;;;13.80;9.03;;;;;;;2.53;100.00;97525.97;4973918;28;20284;-87
2020/12/22 01:47:45;;;;;;;14.77;9.60;;;;;;;2.44;100.00;97524.72;4973956;28;20233;-86
2020/12/22 01:50:12;;;;;;;13.70;10.10;;;;;;;2.60;100.00;97514.41;4973838;28;20236;-86
2020/12/22 01:52:40;;;;;;;13.70;9.63;;;;;;;2.47;100.00;97518.53;4974156;28;20584;-86
2020/12/22 01:55:07;;;;;;;17.70;10.70;;;;;;;2.49;100.00;97509.72;4974045;28;20291;-87
2020/12/22 01:57:35;;;;;;;15.50;9.33;;;;;;;2.31;100.00;97515.88;4973849;28;20740;-86
2020/12/22 02:00:02;;;;;;;13.67;9.57;;;;;;;2.44;100.00;97521.28;4973838;28;20316;-86
2020/12/22 02:02:29;;;;;;;14.80;9.77;;;;;;;2.31;100.00;97521.88;4973642;28;20293;-87
2020/12/22 02:04:56;;;;;;;13.67;10.63;;;;;;;2.25;100.00;97514.44;4973611;28;20205;-86
2020/12/22 02:07:23;;;;;;;13.70;10.10;;;;;;;2.18;100.00;97520.81;4973816;28;20300;-87
2020/12/22 02:09:50;;;;;;;12.87;9.87;;;;;;;2.21;100.00;97522.44;4973746;28;20197;-86
2020/12/22 02:12:17;;;;;;;17.50;10.87;;;;;;;2.20;100.00;97518.16;4973809;28;20205;-87
2020/12/22 02:14:45;;;;;;;18.10;11.00;;;;;;;2.22;100.00;97518.91;4973232;28;20208;-86
2020/12/22 02:17:13;;;;;;;16.63;10.90;;;;;;;2.28;100.00;97521.19;4972955;28;20235;-86
2020/12/22 02:19:40;;;;;;;16.20;10.87;;;;;;;2.34;100.00;97510.53;4973678;28;20657;-86
2020/12/22 02:22:08;;;;;;;15.93;10.33;;;;;;;2.20;100.00;97512.97;4973291;28;20240;-86
2020/12/22 02:24:36;;;;;;;13.57;8.77;;;;;;;2.12;100.00;97516.78;4973668;28;20729;-86
2020/12/22 02:27:04;;;;;;;13.10;10.03;;;;;;;2.14;100.00;97511.50;4973689;28;20201;-86
2020/12/22 02:29:32;;;;;;;15.17;10.10;;;;;;;2.19;100.00;97519.09;4973451;28;20197;-86
2020/12/22 02:31:59;;;;;;;13.93;10.33;;;;;;;2.30;100.00;97521.97;4973366;28;20685;-87
2020/12/22 02:34:26;;;;;;;15.20;10.63;;;;;;;2.27;100.00;97522.13;4973357;28;20221;-87
2020/12/22 02:36:53;;;;;;;13.80;10.17;;;;;;;2.32;100.00;97514.94;4973415;28;20193;-87
2020/12/22 02:39:21;;;;;;;16.03;11.93;;;;;;;2.30;100.00;97509.00;4973769;28;20232;-87
2020/12/22 02:41:48;;;;;;;16.73;11.33;;;;;;;2.27;100.00;97516.94;4973681;28;20201;-86
2020/12/22 02:44:15;;;;;;;13.73;10.30;;;;;;;2.27;100.00;97517.78;4973487;28;20589;-86
2020/12/22 02:46:42;;;;;;;14.73;9.23;;;;;;;2.31;100.00;97521.88;4973578;28;20610;-87
2020/12/22 02:49:08;;;;;;;17.63;9.30;;;;;;;2.39;100.00;97521.53;4973584;28;20232;-86
2020/12/22 02:51:35;;;;;;;14.53;9.20;;;;;;;2.38;100.00;97523.25;4973621;28;20584;-87
2020/12/22 02:54:02;;;;;;;12.53;9.33;;;;;;;2.29;100.00;97515.13;4973524;28;20288;-86
2020/12/22 02:56:30;;;;;;;15.63;9.73;;;;;;;2.01;100.00;97513.03;4973901;28;20633;-86
2020/12/22 02:58:57;;;;;;;16.73;10.50;;;;;;;1.92;100.00;97516.94;4973247;28;20203;-86
2020/12/22 03:01:24;;;;;;;14.67;10.07;;;;;;;2.07;100.00;97515.31;4973089;28;20225;-86
2020/12/22 03:03:51;;;;;;;13.83;9.73;;;;;;;1.97;100.00;97520.13;4973155;28;20240;-86
2020/12/22 03:06:18;;;;;;;14.50;9.73;;;;;;;2.09;100.00;97508.31;4973304;28;20293;-86
2020/12/22 03:08:45;;;;;;;12.83;9.53;;;;;;;2.12;100.00;97519.38;4973137;28;20240;-87
2020/12/22 03:11:11;;;;;;;13.60;9.53;;;;;;;2.18;100.00;97519.97;4973121;28;20237;-86
2020/12/22 03:13:39;;;;;;;13.47;8.93;;;;;;;2.20;100.00;97524.19;4973144;28;20236;-87
2020/12/22 03:16:06;;;;;;;11.27;8.37;;;;;;;2.19;100.00;97524.28;4973128;28;20245;-86
2020/12/22 03:18:33;;;;;;;9.33;7.87;;;;;;;2.24;100.00;97523.09;4973030;28;20194;-87
2020/12/22 03:21:00;;;;;;;13.33;9.60;;;;;;;2.33;100.00;97522.66;4973014;28;20220;-87
2020/12/22 03:23:27;;;;;;;13.07;9.37;;;;;;;2.38;100.00;97525.00;4973095;28;20201;-86
2020/12/22 03:25:53;;;;;;;11.07;7.80;;;;;;;2.24;100.00;97528.28;4973132;28;20696;-86
2020/12/22 03:28:20;;;;;;;15.00;9.70;;;;;;;2.12;100.00;97531.50;4975745;28;20209;-86
2020/12/22 03:30:48;;;;;;;13.63;9.93;;;;;;;2.07;100.00;97523.09;4976420;28;20201;-86
2020/12/22 03:33:15;;;;;;;13.13;8.93;;;;;;;2.08;100.00;97532.59;4976237;28;20245;-86
2020/12/22 03:35:42;;;;;;;10.60;7.60;;;;;;;2.16;100.00;97529.63;4976752;28;20201;-86
2020/12/22 03:38:08;;;;;;;11.17;7.90;;;;;;;2.05;100.00;97530.13;4976326;28;20201;-87
2020/12/22 03:40:35;;;;;;;8.93;7.40;;;;;;;2.16;100.00;97538.22;4976793;28;20232;-86
2020/12/22 03:43:02;;;;;;;7.57;6.03;;;;;;;1.93;100.00;97534.16;4976245;28;20201;-86
2020/12/22 03:45:31;;;;;;;9.53;6.40;;;;;;;1.92;100.00;97537.66;4972995;28;20670;-86
2020/12/22 03:47:58;;;;;;;12.00;8.23;;;;;;;1.88;100.00;97531.78;4959115;28;20202;-85
2020/12/22 03:50:25;;;;;;;12.33;8.17;;;;;;;1.86;100.00;97532.78;4969331;28;20233;-86
2020/12/22 03:52:52;;;;;;;10.53;7.53;;;;;;;1.95;100.00;97534.09;4974819;28;20270;-86
2020/12/22 03:55:23;;;;;;;18.80;11.57;;;;;;;2.01;100.00;97526.00;4974714;28;20201;-86
2020/12/22 03:57:53;;;;;;;22.43;13.83;;;;;;;2.02;100.00;97533.72;4958781;28;20272;-86
2020/12/22 04:00:20;;;;;;;15.50;9.97;;;;;;;1.99;100.00;97526.09;4974636;28;20236;-86
2020/12/22 04:02:48;;;;;;;25.80;16.47;;;;;;;1.87;100.00;97529.25;4975225;28;20578;-86
2020/12/22 04:05:16;;;;;;;15.37;10.70;;;;;;;2.01;100.00;97528.59;4940730;28;20201;-86
2020/12/22 04:07:43;;;;;;;13.27;8.57;;;;;;;1.64;100.00;97522.59;4974927;28;20226;-86
2020/12/22 04:10:10;;;;;;;15.40;11.10;;;;;;;1.62;100.00;97514.88;4975057;28;20200;-86
2020/12/22 04:12:37;;;;;;;11.10;8.60;;;;;;;1.79;100.00;97516.66;4974779;28;20240;-86
2020/12/22 04:15:04;;;;;;;9.80;6.90;;;;;;;1.96;100.00;97522.81;4975213;28;20205;-87
2020/12/22 04:17:32;;;;;;;7.37;6.50;;;;;;;1.92;100.00;97527.28;4975762;28;20233;-87
2020/12/22 04:20:08;;;;;;;6.90;5.77;;;;;;;1.96;100.00;97523.63;4975741;28;20221;-87
2020/12/22 04:22:36;;;;;;;6.33;5.13;;;;;;;1.99;100.00;97520.06;4975623;28;20708;-86
2020/12/22 04:25:03;;;;;;;5.90;5.03;;;;;;;2.06;100.00;97519.69;4975703;28;20247;-87
2020/12/22 04:27:30;;;;;;;6.07;5.20;;;;;;;2.11;100.00;97522.03;4975481;28;20697;-86
2020/12/22 04:29:56;;;;;;;5.93;4.67;;;;;;;2.06;100.00;97524.88;4975409;28;20240;-86
2020/12/22 04:32:23;;;;;;;6.00;5.10;;;;;;;2.15;100.00;97523.59;4974927;28;20319;-86
2020/12/22 04:34:51;;;;;;;5.90;5.20;;;;;;;2.17;100.00;97528.69;4975308;28;20340;-85
2020/12/22 04:37:18;;;;;;;6.77;5.60;;;;;;;2.12;100.00;97531.50;4974738;28;20197;-84
2020/12/22 04:39:46;;;;;;;6.70;5.53;;;;;;;2.21;100.00;97528.44;4974476;28;20648;-84
2020/12/22 04:42:14;;;;;;;6.37;5.37;;;;;;;2.20;100.00;97528.53;4975337;28;20654;-85
2020/12/22 04:44:41;;;;;;;19.33;15.63;;;;;;;2.18;100.00;97530.34;4975047;28;20297;-86
2020/12/22 04:47:10;;;;;;;16.33;12.63;;;;;;;2.26;100.00;97530.84;4974413;28;20213;-85
2020/12/22 04:49:42;;;;;;;19.80;12.33;;;;;;;2.27;100.00;97533.34;4975098;28;20223;-84
2020/12/22 04:52:09;;;;;;;12.83;9.90;;;;;;;2.21;100.00;97533.63;4957025;28;20232;-83
2020/12/22 04:54:38;;;;;;;11.23;8.87;;;;;;;2.25;100.00;97540.38;4974555;28;20205;-84
2020/12/22 04:57:06;;;;;;;10.97;9.20;;;;;;;2.25;100.00;97536.91;4974782;28;20259;-84
2020/12/22 04:59:37;;;;;;;10.20;7.70;;;;;;;2.36;100.00;97545.03;4974692;28;20288;-86
2020/12/22 05:02:04;;;;;;;8.57;7.20;;;;;;;2.27;100.00;97542.88;4974609;28;20202;-85
2020/12/22 05:04:38;;;;;;;7.70;6.90;;;;;;;2.16;100.00;97534.78;4974432;28;20232;-86
2020/12/22 05:07:05;;;;;;;8.93;6.67;;;;;;;2.04;100.00;97537.06;4974850;28;20236;-85
2020/12/22 05:09:32;;;;;;;6.97;6.17;;;;;;;2.07;100.00;97536.91;4974411;28;20200;-85
2020/12/22 05:11:59;;;;;;;8.27;6.20;;;;;;;2.20;100.00;97537.16;4974419;28;20637;-85
2020/12/22 05:14:27;;;;;;;6.63;4.87;;;;;;;2.18;100.00;97533.78;4974742;28;20207;-86
2020/12/22 05:16:55;;;;;;;6.80;6.10;;;;;;;2.17;100.00;97542.50;4974471;28;20259;-85
2020/12/22 05:19:22;;;;;;;7.83;7.03;;;;;;;2.14;100.00;97538.28;4974642;28;20220;-88
2020/12/22 05:21:52;;;;;;;32.83;19.83;;;;;;;2.29;100.00;97531.53;4974520;28;20229;-86
2020/12/22 05:24:19;;;;;;;78.27;45.47;;;;;;;2.44;100.00;97531.66;4974631;28;20259;-86
2020/12/22 05:26:46;;;;;;;79.67;47.00;;;;;;;2.38;100.00;97535.41;4973987;28;20297;-86
2020/12/22 05:29:14;;;;;;;58.07;36.93;;;;;;;2.46;100.00;97533.28;4974089;28;20201;-86
2020/12/22 05:31:43;;;;;;;31.20;21.93;;;;;;;2.50;100.00;97527.00;4974014;28;20255;-86
2020/12/22 05:34:11;;;;;;;32.77;23.93;;;;;;;2.38;100.00;97527.59;4974598;28;20617;-86
2020/12/22 05:36:43;;;;;;;41.57;27.90;;;;;;;2.35;100.00;97525.16;4974038;28;20212;-85
2020/12/22 05:39:11;;;;;;;62.57;37.73;;;;;;;2.27;100.00;97532.50;4974338;28;20224;-85
2020/12/22 05:41:39;;;;;;;106.40;64.43;;;;;;;2.26;100.00;97536.03;4974234;28;20232;-86
2020/12/22 05:44:06;;;;;;;46.47;29.60;;;;;;;2.27;100.00;97535.94;4974683;28;20575;-86
2020/12/22 05:46:35;;;;;;;21.37;14.83;;;;;;;2.34;100.00;97542.50;4974047;28;20232;-86
2020/12/22 05:49:04;;;;;;;21.33;16.10;;;;;;;2.36;100.00;97537.25;4974270;28;20204;-86
2020/12/22 05:51:32;;;;;;;20.83;15.93;;;;;;;2.38;100.00;97538.81;4973892;28;20200;-86
2020/12/22 05:54:04;;;;;;;18.30;12.73;;;;;;;2.30;100.00;97548.75;4974014;28;20208;-86
2020/12/22 05:56:31;;;;;;;15.50;13.03;;;;;;;2.26;100.00;97542.03;4973834;28;20252;-85
2020/12/22 05:58:58;;;;;;;16.93;12.63;;;;;;;2.25;100.00;97542.97;4974184;28;20209;-86
2020/12/22 06:01:30;;;;;;;18.10;13.27;;;;;;;2.32;100.00;97546.94;4973630;28;20717;-86
2020/12/22 06:03:58;;;;;;;13.87;10.47;;;;;;;2.29;100.00;97541.91;4973667;28;20216;-86
2020/12/22 06:06:28;;;;;;;15.83;10.90;;;;;;;2.21;100.00;97543.19;4973633;28;20765;-86
2020/12/22 06:08:56;;;;;;;14.67;9.93;;;;;;;2.12;100.00;97536.69;4973682;28;20232;-86
2020/12/22 06:11:23;;;;;;;11.63;8.10;;;;;;;2.13;100.00;97547.00;4973659;28;20237;-86
2020/12/22 06:13:50;;;;;;;13.60;9.73;;;;;;;2.20;100.00;97542.34;4973507;28;20296;-86
2020/12/22 06:16:19;;;;;;;14.70;10.13;;;;;;;2.30;100.00;97535.78;4973621;28;20240;-86
2020/12/22 06:18:47;;;;;;;14.90;11.63;;;;;;;2.28;100.00;97547.16;4973976;28;20244;-86
2020/12/22 06:21:17;;;;;;;15.20;10.87;;;;;;;2.13;100.00;97546.16;4973294;28;20232;-86
2020/12/22 06:23:46;;;;;;;16.30;11.60;;;;;;;2.06;100.00;97561.16;4973699;28;20204;-86
2020/12/22 06:26:13;;;;;;;11.83;9.20;;;;;;;2.08;100.00;97548.16;4973469;28;20240;-86
2020/12/22 06:28:40;;;;;;;14.57;9.67;;;;;;;2.10;100.00;97551.50;4973489;28;20810;-86
2020/12/22 06:31:18;;;;;;;13.27;9.87;;;;;;;2.09;100.00;97555.84;4973444;28;20283;-86
2020/12/22 06:33:45;;;;;;;12.67;8.27;;;;;;;2.24;100.00;97561.19;4973120;28;20236;-86
2020/12/22 06:36:14;;;;;;;9.47;8.47;;;;;;;2.20;100.00;97559.66;4973327;28;20293;-85
2020/12/22 06:38:48;;;;;;;56.90;26.93;;;;;;;2.28;100.00;97554.94;4973495;28;20201;-86
2020/12/22 06:41:52;;;;;;;22.00;14.60;;;;;;;2.27;100.00;97559.28;4973283;28;20685;-86
2020/12/22 06:44:25;;;;;;;13.93;10.80;;;;;;;2.22;100.00;97563.00;4973246;28;20287;-86
2020/12/22 06:46:53;;;;;;;10.33;7.73;;;;;;;2.14;100.00;97566.81;4973367;28;20197;-86
2020/12/22 06:49:35;;;;;;;10.87;7.20;;;;;;;2.17;100.00;97571.03;4973463;28;20274;-85
2020/12/22 06:52:02;;;;;;;9.93;7.87;;;;;;;2.15;100.00;97567.69;4972872;28;20232;-86
2020/12/22 06:54:33;;;;;;;9.33;7.47;;;;;;;2.12;100.00;97563.47;4973265;28;20205;-86
2020/12/22 06:57:01;;;;;;;10.80;9.70;;;;;;;2.13;100.00;97569.50;4972904;28;20197;-85
2020/12/22 06:59:49;;;;;;;12.87;8.07;;;;;;;2.16;100.00;97558.97;4973400;28;20691;-85
2020/12/22 07:02:35;;;;;;;9.17;7.40;;;;;;;2.30;100.00;97563.50;4974847;28;20201;-85
2020/12/22 07:05:03;;;;;;;8.33;6.07;;;;;;;2.36;100.00;97558.00;4977080;28;20634;-86
2020/12/22 07:07:57;;;;;;;11.17;8.23;;;;;;;2.39;100.00;97555.25;4977041;28;20200;-85
2020/12/22 07:10:28;;;;;;;11.60;7.90;;;;;;;2.32;100.00;97551.25;4976561;28;20260;-85
2020/12/22 07:13:02;;;;;;;8.33;7.43;;;;;;;2.39;100.00;97544.88;4976731;28;20192;-85
2020/12/22 07:15:33;;;;;;;14.93;10.27;;;;;;;2.51;100.00;97548.59;4976675;28;20232;-86
2020/12/22 07:18:09;;;;;;;18.83;12.80;;;;;;;2.72;100.00;97557.88;4976659;28;20243;-88
2020/12/22 07:20:38;;;;;;;19.37;12.70;;;;;;;2.60;100.00;97550.75;4977068;28;20208;-86
2020/12/22 07:23:05;;;;;;;40.30;18.93;;;;;;;2.42;100.00;97560.25;4964190;28;20214;-85
2020/12/22 07:25:36;;;;;;;20.13;16.87;;;;;;;2.34;100.00;97554.63;4961273;28;20267;-86
2020/12/22 07:28:05;;;;;;;16.10;12.00;;;;;;;2.49;100.00;97564.22;4974331;28;20209;-86
2020/12/22 07:30:32;;;;;;;18.50;12.37;;;;;;;2.59;100.00;97562.03;4976522;28;20205;-86
2020/12/22 07:33:00;;;;;;;225.50;120.97;;;;;;;2.71;100.00;97557.97;4988238;28;20420;-86
2020/12/22 07:35:27;;;;;;;40.33;26.80;;;;;;;2.81;100.00;97559.19;4996142;28;20208;-86
2020/12/22 07:38:00;;;;;;;25.83;19.83;;;;;;;3.00;100.00;97559.88;4995647;28;20240;-86
2020/12/22 07:40:27;;;;;;;20.37;15.90;;;;;;;3.11;100.00;97559.31;4995794;28;20295;-85
2020/12/22 07:43:04;;;;;;;16.10;12.80;;;;;;;2.95;100.00;97553.28;4996036;28;20222;-87
2020/12/22 07:45:31;;;;;;;15.33;12.00;;;;;;;3.03;100.00;97548.50;4995574;28;20246;-85
2020/12/22 07:47:58;;;;;;;15.30;10.10;;;;;;;3.25;100.00;97532.63;4995736;28;20284;-85
2020/12/22 07:50:24;;;;;;;12.00;9.43;;;;;;;3.22;100.00;97528.44;4995345;28;20200;-86
2020/12/22 07:52:57;;;;;;;11.17;8.83;;;;;;;3.33;100.00;97533.06;4995991;28;20673;-95
2020/12/22 07:55:24;;;;;;;10.43;8.37;;;;;;;3.45;100.00;97537.56;4996118;28;20678;-93
2020/12/22 07:57:52;;;;;;;10.50;8.13;;;;;;;3.32;100.00;97531.34;4996388;28;20647;-93
2020/12/22 08:00:21;;;;;;;12.80;9.30;;;;;;;3.40;100.00;97534.41;4996050;28;20232;-92
2020/12/22 08:02:48;;;;;;;12.00;8.80;;;;;;;3.51;100.00;97539.84;4996207;28;20250;-93
2020/12/22 08:05:15;;;;;;;10.87;8.73;;;;;;;3.53;100.00;97534.53;4995838;28;20204;-93
2020/12/22 08:07:42;;;;;;;10.93;8.63;;;;;;;3.64;100.00;97533.97;4995976;28;20204;-94
2020/12/22 08:10:10;;;;;;;14.60;11.00;;;;;;;3.55;100.00;97530.94;4995784;28;20258;-92
2020/12/22 08:12:38;;;;;;;13.97;9.90;;;;;;;3.57;100.00;97528.28;4995635;28;20207;-92
2020/12/22 08:15:06;;;;;;;8.57;7.20;;;;;;;3.33;100.00;97525.25;4995091;28;20215;-92
2020/12/22 08:17:38;;;;;;;10.10;8.53;;;;;;;3.54;100.00;97520.66;4995852;28;20200;-93
2020/12/22 08:20:05;;;;;;;8.90;7.17;;;;;;;3.51;100.00;97526.84;4995900;28;20250;-94
2020/12/22 08:22:33;;;;;;;8.97;6.80;;;;;;;3.47;100.00;97522.75;4996260;28;20270;-93
2020/12/22 08:25:01;;;;;;;11.40;9.47;;;;;;;3.58;100.00;97520.38;4995708;28;20207;-93
2020/12/22 08:27:30;;;;;;;10.13;8.17;;;;;;;3.61;100.00;97518.56;4995692;28;20203;-93
2020/12/22 08:29:57;;;;;;;12.00;9.40;;;;;;;3.71;100.00;97514.53;4995293;28;20204;-92
2020/12/22 08:32:26;;;;;;;23.57;16.13;;;;;;;3.74;100.00;97511.72;4995347;28;20713;-92
2020/12/22 08:34:55;;;;;;;10.40;7.30;;;;;;;3.75;100.00;97514.25;4995355;28;20745;-93
2020/12/22 08:37:26;;;;;;;8.30;7.33;;;;;;;3.69;100.00;97501.59;4996095;28;20204;-94
2020/12/22 08:39:54;;;;;;;9.30;7.87;;;;;;;3.70;100.00;97507.63;4995610;28;20223;-93
2020/12/22 08:42:21;;;;;;;7.90;7.10;;;;;;;3.57;100.00;97508.31;4998644;28;20199;-93
2020/12/22 08:44:50;;;;;;;9.47;7.97;;;;;;;3.63;100.00;97504.53;4995414;28;20219;-93
2020/12/22 08:47:18;;;;;;;11.73;10.53;;;;;;;3.69;100.00;97499.00;4994996;28;20207;-95
2020/12/22 08:49:45;;;;;;;12.20;10.50;;;;;;;3.65;100.00;97500.09;4996464;28;20204;-95
2020/12/22 08:52:15;;;;;;;13.10;11.10;;;;;;;3.74;100.00;97496.13;4995284;28;20207;-95
2020/12/22 08:54:42;;;;;;;10.90;9.43;;;;;;;3.75;100.00;97498.66;4995335;28;20244;-95
2020/12/22 08:57:15;;;;;;;11.63;9.37;;;;;;;3.67;100.00;97489.59;4995103;28;20196;-94
2020/12/22 08:59:42;;;;;;;8.77;7.73;;;;;;;3.65;100.00;97492.28;4996887;28;20700;-96
2020/12/22 09:02:22;;;;;;;8.43;7.60;;;;;;;3.66;100.00;97483.56;4996233;28;20227;-92
2020/12/22 09:04:49;;;;;;;8.60;7.70;;;;;;;3.75;100.00;97480.44;4995436;28;20196;-95
2020/12/22 09:07:17;;;;;;;10.43;7.93;;;;;;;3.76;100.00;97486.47;4995412;28;20228;-93
2020/12/22 09:09:44;;;;;;;10.03;8.70;;;;;;;3.68;100.00;97486.09;4995467;28;20227;-93
2020/12/22 09:12:12;;;;;;;9.43;7.53;;;;;;;3.73;100.00;97476.25;4995157;28;20203;-95
2020/12/22 09:14:40;;;;;;;8.67;7.20;;;;;;;3.63;100.00;97473.31;4995433;28;20225;-95
2020/12/22 09:17:08;;;;;;;8.57;7.67;;;;;;;3.60;100.00;97464.84;4995598;28;20239;-95
2020/12/22 09:19:43;;;;;;;13.67;8.80;;;;;;;3.59;100.00;97466.63;4995918;28;20235;-96
2020/12/22 09:22:10;;;;;;;10.17;7.83;;;;;;;3.54;100.00;97461.69;4994558;28;20223;-95
2020/12/22 09:24:39;;;;;;;7.77;6.50;;;;;;;3.67;100.00;97458.38;4994169;28;20200;-96
2020/12/22 09:27:07;;;;;;;8.50;6.70;;;;;;;3.79;100.00;97450.75;4994878;28;20255;-96
2020/12/22 09:29:36;;;;;;;8.13;6.70;;;;;;;3.74;100.00;97454.50;4994818;28;20203;-96
2020/12/22 09:32:04;;;;;;;8.97;7.47;;;;;;;3.73;100.00;97440.69;4995905;28;20319;-96
2020/12/22 09:34:32;;;;;;;12.67;8.30;;;;;;;3.85;100.00;97446.13;4994583;28;20231;-95
2020/12/22 09:37:01;;;;;;;9.53;7.23;;;;;;;3.79;100.00;97442.94;4994837;28;20204;-95
2020/12/22 09:39:29;;;;;;;10.57;7.60;;;;;;;3.83;100.00;97445.38;4994690;28;20231;-96
2020/12/22 09:41:58;;;;;;;8.33;7.07;;;;;;;3.79;100.00;97444.72;4995097;28;20235;-96
2020/12/22 09:44:25;;;;;;;12.37;8.97;;;;;;;3.81;100.00;97437.66;4995251;28;20271;-94
2020/12/22 09:46:54;;;;;;;8.70;7.60;;;;;;;3.84;100.00;97442.66;4998701;28;20200;-95
2020/12/22 09:49:22;;;;;;;9.83;8.40;;;;;;;3.91;100.00;97440.56;5003183;28;20203;-96
2020/12/22 09:51:49;;;;;;;10.73;9.53;;;;;;;3.87;100.00;97437.28;5153685;23;20619;-96
2020/12/22 09:54:16;;;;;;;11.47;9.23;;;;;;;3.86;100.00;97440.81;5003486;28;20287;-95
2020/12/22 09:56:44;;;;;;;12.17;9.27;;;;;;;3.91;100.00;97441.38;5000315;28;20196;-96
2020/12/22 09:59:12;;;;;;;10.77;8.37;;;;;;;3.99;100.00;97430.56;4995060;28;20204;-96
2020/12/22 10:01:39;;;;;;;14.87;13.03;;;;;;;4.07;100.00;97432.72;4993673;28;20319;-96
2020/12/22 10:04:06;;;;;;;12.57;9.73;;;;;;;4.13;100.00;97429.75;4993867;28;20596;-96
2020/12/22 10:06:33;;;;;;;13.83;10.70;;;;;;;4.20;100.00;97429.28;4994205;28;20192;-95
2020/12/22 10:09:00;;;;;;;13.13;10.90;;;;;;;4.41;100.00;97431.56;4993760;28;20200;-96
2020/12/22 10:11:30;;;;;;;9.33;7.97;;;;;;;4.47;100.00;97426.81;4993684;28;20200;-96
2020/12/22 10:13:57;;;;;;;10.37;9.27;;;;;;;5.09;100.00;97416.06;4993876;28;20554;-95
2020/12/22 10:16:25;;;;;;;10.00;7.57;;;;;;;5.63;100.00;97415.22;4995174;28;20324;-96
2020/12/22 10:18:52;;;;;;;12.43;10.97;;;;;;;5.77;100.00;97404.72;4994442;28;20200;-96
2020/12/22 10:21:20;;;;;;;8.63;7.67;;;;;;;4.96;100.00;97402.13;4994535;28;20259;-96
2020/12/22 10:23:48;;;;;;;19.63;17.17;;;;;;;4.85;100.00;97397.59;4994481;28;20279;-96
2020/12/22 10:26:17;;;;;;;37.67;27.67;;;;;;;4.58;100.00;97396.69;4994533;28;20196;-96
2020/12/22 10:28:45;;;;;;;18.77;14.10;;;;;;;4.60;100.00;97394.81;4994390;28;20200;-95
2020/12/22 10:31:14;;;;;;;9.73;8.73;;;;;;;4.34;100.00;97391.19;4994058;28;20673;-96
2020/12/22 10:33:42;;;;;;;11.77;9.00;;;;;;;4.33;100.00;97387.78;4994290;28;20199;-96
2020/12/22 10:36:12;;;;;;;11.43;9.13;;;;;;;4.24;100.00;97383.09;4993527;28;20207;-96
2020/12/22 10:38:38;;;;;;;9.77;8.57;;;;;;;4.14;100.00;97388.03;4998103;28;20669;-95
2020/12/22 10:41:05;;;;;;;14.90;10.77;;;;;;;4.20;100.00;97387.66;4997520;28;20220;-96
2020/12/22 10:43:32;;;;;;;12.87;9.03;;;;;;;4.10;100.00;97390.91;4998066;28;20673;-95
2020/12/22 10:45:59;;;;;;;14.63;12.53;;;;;;;4.13;100.00;97388.13;4997764;28;20195;-96
2020/12/22 10:48:26;;;;;;;16.37;12.73;;;;;;;4.04;100.00;97389.50;4997339;28;20208;-96
2020/12/22 10:50:54;;;;;;;10.87;9.50;;;;;;;3.92;100.00;97385.03;4997598;28;20239;-95
2020/12/22 10:53:21;;;;;;;11.33;9.73;;;;;;;4.07;100.00;97394.50;4997374;28;20637;-94
2020/12/22 10:55:48;;;;;;;10.07;9.00;;;;;;;4.00;100.00;97396.63;4997917;28;20203;-96
2020/12/22 10:58:15;;;;;;;13.93;10.33;;;;;;;4.01;100.00;97387.06;4997435;28;20200;-96
2020/12/22 11:00:42;;;;;;;12.80;9.00;;;;;;;4.00;100.00;97385.41;4997387;28;20238;-96
2020/12/22 11:03:10;;;;;;;8.60;7.70;;;;;;;4.02;100.00;97381.78;4997143;28;20208;-96
2020/12/22 11:08:23;;;;;;;7.67;6.53;;;;;;;3.94;100.00;97375.34;4997606;28;20178;-96
2020/12/22 11:10:50;;;;;;;8.00;6.90;;;;;;;3.94;100.00;97370.97;4997475;28;20629;-96
2020/12/22 11:13:17;;;;;;;10.30;9.30;;;;;;;3.85;100.00;97370.72;4997074;28;20235;-96
2020/12/22 11:15:45;;;;;;;10.00;9.03;;;;;;;3.88;100.00;97370.50;4996908;28;20192;-96
2020/12/22 11:18:11;;;;;;;12.43;10.73;;;;;;;3.86;100.00;97373.22;4997875;28;20231;-95
2020/12/22 11:20:38;;;;;;;14.30;10.57;;;;;;;3.93;100.00;97364.13;4997092;28;20310;-95
2020/12/22 11:23:05;;;;;;;13.30;10.50;;;;;;;3.98;100.00;97366.44;4996811;28;20196;-96
2020/12/22 11:25:33;;;;;;;13.13;10.60;;;;;;;3.96;100.00;97368.31;4997367;28;20204;-95
2020/12/22 11:28:00;;;;;;;9.97;8.23;;;;;;;3.86;100.00;97357.59;4997456;28;20712;-95
2020/12/22 11:30:27;;;;;;;10.53;8.60;;;;;;;3.87;100.00;97356.66;4997998;28;20192;-95
2020/12/22 11:32:53;;;;;;;12.23;8.33;;;;;;;3.92;100.00;97359.84;4997968;28;20264;-95